Time;durP1;ratioP1;P1;durP2;ratioP2;P2;SDS_P1;SDS_P2;PMS_P1;PMS_P2;Temp;Humidity;BMP_temperature;BMP_pressure;BME280_temperature;BME280_humidity;BME280_pressure;Samples;Min_cycle;Max_cycle;Signal;HPM_P1;HPM_P2
2021/09/11 00:01:22;;;;;;;9.73;9.00;;;;;;;17.48;100.00;98123.06;4988032;28;22026;-69
2021/09/11 00:03:51;;;;;;;9.57;8.90;;;;;;;17.57;100.00;98121.00;4996803;28;20212;-68
2021/09/11 00:06:20;;;;;;;8.83;8.13;;;;;;;17.52;100.00;98116.25;4999379;28;20749;-69
2021/09/11 00:08:47;;;;;;;10.53;9.57;;;;;;;17.47;100.00;98119.56;4961619;28;20233;-68
2021/09/11 00:11:15;;;;;;;10.50;9.60;;;;;;;17.36;100.00;98121.00;4997377;28;20357;-68
2021/09/11 00:13:43;;;;;;;9.60;8.87;;;;;;;17.38;100.00;98119.97;5000824;28;20685;-69
2021/09/11 00:16:13;;;;;;;10.23;9.40;;;;;;;17.38;100.00;98117.28;4992566;28;20423;-69
2021/09/11 00:18:40;;;;;;;10.03;9.23;;;;;;;17.41;100.00;98111.50;4986612;28;20224;-70
2021/09/11 00:21:10;;;;;;;11.17;10.13;;;;;;;17.40;100.00;98112.53;4996267;28;20228;-69
2021/09/11 00:23:38;;;;;;;11.37;9.27;;;;;;;17.47;100.00;98108.00;4997589;28;20216;-69
2021/09/11 00:26:06;;;;;;;10.17;9.27;;;;;;;17.42;100.00;98110.47;4958485;28;20220;-67
2021/09/11 00:28:34;;;;;;;9.63;8.83;;;;;;;17.40;100.00;98113.34;4994987;28;20224;-69
2021/09/11 00:31:02;;;;;;;10.40;9.50;;;;;;;17.36;100.00;98107.59;4998188;28;20220;-67
2021/09/11 00:33:30;;;;;;;9.70;8.70;;;;;;;17.49;100.00;98111.31;4990066;28;20626;-69
2021/09/11 00:35:58;;;;;;;10.50;9.70;;;;;;;17.35;100.00;98105.94;4998243;28;20204;-68
2021/09/11 00:38:27;;;;;;;9.77;9.07;;;;;;;17.35;100.00;98105.94;5000906;28;20224;-69
2021/09/11 00:40:55;;;;;;;10.90;9.87;;;;;;;17.38;100.00;98107.38;4961253;28;20213;-67
2021/09/11 00:43:24;;;;;;;10.23;9.43;;;;;;;17.50;100.00;98105.75;4992788;28;20393;-68
2021/09/11 00:45:52;;;;;;;10.37;9.47;;;;;;;17.35;100.00;98105.94;5002159;28;20211;-68
2021/09/11 00:48:20;;;;;;;9.90;9.20;;;;;;;17.32;100.00;98113.56;4988752;28;20260;-69
2021/09/11 00:50:48;;;;;;;9.47;8.70;;;;;;;17.35;100.00;98114.00;5001667;28;20614;-68
2021/09/11 00:53:16;;;;;;;9.30;8.50;;;;;;;17.28;100.00;98109.66;4996486;28;20228;-68
2021/09/11 00:55:46;;;;;;;9.97;9.17;;;;;;;17.29;100.00;98111.28;4967306;28;20326;-68
2021/09/11 00:58:14;;;;;;;10.50;9.60;;;;;;;17.29;100.00;98109.47;4991467;28;20213;-69
2021/09/11 01:00:42;;;;;;;11.17;10.10;;;;;;;17.30;100.00;98107.59;4997325;28;20205;-67
2021/09/11 01:03:11;;;;;;;10.20;9.40;;;;;;;17.27;100.00;98116.88;4988638;28;20430;-68
2021/09/11 01:05:39;;;;;;;9.10;8.43;;;;;;;17.18;100.00;98116.22;4997193;28;20209;-68
2021/09/11 01:08:08;;;;;;;8.80;8.13;;;;;;;17.16;100.00;98114.78;5001606;28;20228;-68
2021/09/11 01:10:37;;;;;;;8.93;8.13;;;;;;;17.07;100.00;98117.66;4998223;28;20625;-68
2021/09/11 01:13:09;;;;;;;10.43;9.63;;;;;;;17.14;100.00;98120.34;4961771;28;20213;-67
2021/09/11 01:15:39;;;;;;;10.43;9.73;;;;;;;17.13;100.00;98129.41;4996185;28;20205;-68
2021/09/11 01:18:07;;;;;;;10.87;10.03;;;;;;;17.07;100.00;98123.00;4987461;28;20340;-67
2021/09/11 01:20:36;;;;;;;9.47;8.67;;;;;;;17.13;100.00;98123.22;4999236;28;20228;-67
2021/09/11 01:23:04;;;;;;;9.87;9.03;;;;;;;17.11;100.00;98120.75;4993469;28;20232;-68
2021/09/11 01:25:34;;;;;;;9.53;8.83;;;;;;;17.16;100.00;98122.81;5004360;28;20208;-69
2021/09/11 01:28:02;;;;;;;10.03;9.23;;;;;;;17.10;100.00;98120.94;4956961;28;20250;-68
2021/09/11 01:30:30;;;;;;;10.57;9.67;;;;;;;17.01;100.00;98125.66;4999099;28;20482;-69
2021/09/11 01:32:58;;;;;;;10.83;10.03;;;;;;;17.10;100.00;98126.31;4991760;28;20611;-67
2021/09/11 01:35:26;;;;;;;10.00;9.30;;;;;;;17.02;100.00;98120.13;4985847;28;20587;-69
2021/09/11 01:37:54;;;;;;;10.80;9.70;;;;;;;17.06;100.00;98121.34;5002479;28;20228;-67
2021/09/11 01:40:23;;;;;;;11.23;10.17;;;;;;;16.99;100.00;98115.16;5008585;28;20764;-69
2021/09/11 01:42:52;;;;;;;10.93;9.93;;;;;;;16.95;100.00;98113.06;4965137;28;21037;-68
2021/09/11 01:45:22;;;;;;;9.73;8.97;;;;;;;16.94;100.00;98117.59;5002749;28;20579;-68
2021/09/11 01:47:51;;;;;;;10.40;9.60;;;;;;;16.86;100.00;98117.78;4970459;28;20508;-67
2021/09/11 01:50:21;;;;;;;10.90;9.90;;;;;;;16.81;100.00;98114.88;4985202;28;20263;-67
2021/09/11 01:52:51;;;;;;;10.90;9.93;;;;;;;16.76;100.00;98123.53;5001047;28;20666;-68
2021/09/11 01:55:20;;;;;;;11.80;10.90;;;;;;;16.79;100.00;98113.22;4988561;28;20213;-68
2021/09/11 01:57:49;;;;;;;11.23;10.33;;;;;;;16.78;100.00;98122.28;5004272;28;20229;-69
2021/09/11 02:00:19;;;;;;;10.67;9.80;;;;;;;16.86;100.00;98117.78;5001823;28;20208;-67
2021/09/11 02:02:48;;;;;;;11.47;10.40;;;;;;;16.72;100.00;98117.72;4963155;28;20857;-68
2021/09/11 02:05:17;;;;;;;11.67;10.77;;;;;;;16.65;100.00;98127.59;4979234;28;20221;-67
2021/09/11 02:07:45;;;;;;;11.30;10.30;;;;;;;16.65;100.00;98127.59;5002388;28;20247;-70
2021/09/11 02:10:17;;;;;;;11.10;10.20;;;;;;;16.67;100.00;98125.53;4989982;28;20263;-67
2021/09/11 02:12:48;;;;;;;11.47;10.57;;;;;;;16.63;100.00;98126.97;4994578;28;20251;-69
2021/09/11 02:15:18;;;;;;;11.43;10.53;;;;;;;16.69;100.00;98131.50;5006799;28;20200;-69
2021/09/11 02:17:46;;;;;;;11.10;10.30;;;;;;;16.59;100.00;98128.41;4966283;28;20224;-67
2021/09/11 02:20:15;;;;;;;11.50;10.43;;;;;;;16.57;100.00;98133.13;4995601;28;20273;-68
2021/09/11 02:22:43;;;;;;;11.10;10.23;;;;;;;16.54;100.00;98134.31;5003161;28;20584;-67
2021/09/11 02:25:11;;;;;;;12.40;11.43;;;;;;;16.53;100.00;98132.69;4994373;28;20200;-69
2021/09/11 02:27:40;;;;;;;10.47;9.67;;;;;;;16.48;100.00;98127.09;4994952;28;20229;-67
2021/09/11 02:30:10;;;;;;;10.87;10.07;;;;;;;16.51;100.00;98129.38;4998715;28;20563;-69
2021/09/11 02:32:39;;;;;;;10.97;10.13;;;;;;;16.55;100.00;98129.81;5003522;28;20200;-68
2021/09/11 02:35:08;;;;;;;10.10;9.40;;;;;;;16.52;100.00;98138.25;4964497;28;20596;-68
2021/09/11 02:37:37;;;;;;;10.47;9.57;;;;;;;16.52;100.00;98132.91;4995222;28;20220;-67
2021/09/11 02:40:06;;;;;;;10.90;10.10;;;;;;;16.49;100.00;98134.94;4987189;28;20217;-68
2021/09/11 02:42:34;;;;;;;11.47;10.57;;;;;;;16.51;100.00;98140.09;4996225;28;20209;-68
2021/09/11 02:45:02;;;;;;;11.37;10.57;;;;;;;16.48;100.00;98137.81;4999167;28;20403;-68
2021/09/11 02:47:30;;;;;;;11.10;10.20;;;;;;;16.58;100.00;98140.13;5001509;28;20694;-69
2021/09/11 02:49:59;;;;;;;11.17;10.37;;;;;;;16.47;100.00;98141.50;4960225;28;20220;-68
2021/09/11 02:52:27;;;;;;;10.70;9.90;;;;;;;16.40;100.00;98133.44;5001831;28;20220;-69
2021/09/11 02:54:55;;;;;;;11.47;10.67;;;;;;;16.45;100.00;98143.56;4998286;28;20862;-67
2021/09/11 02:57:23;;;;;;;11.27;10.47;;;;;;;16.45;100.00;98140.88;4989366;28;20229;-69
2021/09/11 02:59:51;;;;;;;11.83;10.83;;;;;;;16.33;100.00;98141.44;4994737;28;20262;-69
2021/09/11 03:02:19;;;;;;;11.57;10.67;;;;;;;16.37;100.00;98149.06;5000527;28;20209;-68
2021/09/11 03:04:47;;;;;;;11.20;10.27;;;;;;;16.36;100.00;98137.53;4962597;28;20216;-67
2021/09/11 03:07:16;;;;;;;11.53;10.67;;;;;;;16.27;100.00;98144.88;5001572;28;20630;-68
2021/09/11 03:09:44;;;;;;;11.77;10.70;;;;;;;16.39;100.00;98144.34;5002675;28;20228;-67
2021/09/11 03:12:12;;;;;;;10.80;9.83;;;;;;;16.41;100.00;98143.13;4987322;28;20217;-69
2021/09/11 03:14:40;;;;;;;10.40;9.50;;;;;;;16.38;100.00;98140.03;4995031;28;20212;-67
2021/09/11 03:17:08;;;;;;;11.67;10.77;;;;;;;16.41;100.00;98147.66;4998093;28;20231;-69
2021/09/11 03:19:36;;;;;;;11.40;10.40;;;;;;;16.45;100.00;98149.72;4988166;28;20246;-68
2021/09/11 03:22:04;;;;;;;11.20;10.40;;;;;;;16.42;100.00;98147.44;4985682;28;20471;-68
2021/09/11 03:24:34;;;;;;;12.43;11.33;;;;;;;16.39;100.00;98152.38;5004324;28;20204;-67
2021/09/11 03:27:02;;;;;;;11.80;10.60;;;;;;;16.41;100.00;98148.47;4986301;28;20771;-68
2021/09/11 03:29:30;;;;;;;11.40;10.50;;;;;;;16.49;100.00;98147.47;4996997;28;20644;-67
2021/09/11 03:31:57;;;;;;;12.23;11.23;;;;;;;16.52;100.00;98141.72;4996358;28;20266;-68
2021/09/11 03:34:25;;;;;;;11.37;10.50;;;;;;;16.50;100.00;98141.09;5002518;28;20280;-68
2021/09/11 03:36:53;;;;;;;11.80;10.70;;;;;;;16.46;100.00;98151.38;4966361;28;20570;-68
2021/09/11 03:39:21;;;;;;;11.53;10.57;;;;;;;16.44;100.00;98149.94;4993721;28;20213;-67
2021/09/11 03:41:51;;;;;;;10.33;9.53;;;;;;;16.46;100.00;98162.06;5005786;28;20208;-68
2021/09/11 03:44:19;;;;;;;10.83;10.03;;;;;;;16.55;100.00;98151.22;4985882;28;20284;-70
2021/09/11 03:46:47;;;;;;;12.33;11.23;;;;;;;16.46;100.00;98151.38;4993603;28;20791;-70
2021/09/11 03:49:15;;;;;;;11.33;10.37;;;;;;;16.43;100.00;98157.09;4995036;28;20624;-70
2021/09/11 03:51:43;;;;;;;11.70;10.73;;;;;;;16.49;100.00;98160.84;4957896;28;20771;-70
2021/09/11 03:54:10;;;;;;;11.13;10.23;;;;;;;16.46;100.00;98155.91;4994058;28;20204;-71
2021/09/11 03:56:39;;;;;;;11.63;10.63;;;;;;;16.48;100.00;98154.69;5002841;28;20229;-68
2021/09/11 03:59:08;;;;;;;11.33;10.43;;;;;;;16.50;100.00;98149.13;4951427;28;20221;-70
2021/09/11 04:01:36;;;;;;;11.10;10.20;;;;;;;16.58;100.00;98154.31;4978814;28;20209;-68
2021/09/11 04:04:04;;;;;;;11.37;10.27;;;;;;;16.53;100.00;98151.41;4996015;28;20708;-68
2021/09/11 04:06:32;;;;;;;11.57;10.77;;;;;;;16.52;100.00;98148.94;4969891;28;20540;-68
2021/09/11 04:09:00;;;;;;;11.37;10.37;;;;;;;16.47;100.00;98152.19;4996478;28;20649;-69
2021/09/11 04:11:28;;;;;;;12.43;11.23;;;;;;;16.52;100.00;98154.28;4978971;28;20244;-68
2021/09/11 04:13:56;;;;;;;11.30;10.30;;;;;;;16.55;100.00;98153.91;4950281;28;20224;-68
2021/09/11 04:16:25;;;;;;;11.13;10.23;;;;;;;16.66;100.00;98147.97;4981842;28;20612;-69
2021/09/11 04:18:53;;;;;;;11.07;10.17;;;;;;;16.64;100.00;98156.19;4994470;28;20209;-69
2021/09/11 04:21:21;;;;;;;11.97;11.00;;;;;;;16.70;100.00;98146.53;4983462;28;20589;-69
2021/09/11 04:23:49;;;;;;;11.40;10.27;;;;;;;16.64;100.00;98155.38;4980559;28;20223;-69
2021/09/11 04:26:17;;;;;;;11.20;10.03;;;;;;;16.67;100.00;98156.81;4997783;28;20696;-68
2021/09/11 04:28:45;;;;;;;11.03;10.13;;;;;;;16.73;100.00;98159.53;4977476;28;20220;-69
2021/09/11 04:31:13;;;;;;;10.90;10.00;;;;;;;16.71;100.00;98163.44;4955689;28;20233;-69
2021/09/11 04:33:43;;;;;;;12.03;11.03;;;;;;;16.72;100.00;98160.53;4996876;28;20209;-67
2021/09/11 04:36:11;;;;;;;10.47;9.53;;;;;;;16.61;100.00;98161.13;4990393;28;20788;-69
2021/09/11 04:38:41;;;;;;;10.27;9.47;;;;;;;16.64;100.00;98168.75;4981700;28;20232;-68
2021/09/11 04:41:09;;;;;;;11.80;10.90;;;;;;;16.66;100.00;98166.69;4996779;28;20589;-70
2021/09/11 04:43:37;;;;;;;11.63;10.67;;;;;;;16.61;100.00;98167.28;4995014;28;20208;-69
2021/09/11 04:46:04;;;;;;;11.67;10.70;;;;;;;16.61;100.00;98167.28;4941763;28;20338;-68
2021/09/11 04:48:32;;;;;;;11.17;10.20;;;;;;;16.60;100.00;98175.53;4978197;28;20257;-68
2021/09/11 04:51:02;;;;;;;12.13;11.07;;;;;;;16.67;100.00;98178.22;4998128;28;20553;-69
2021/09/11 04:53:30;;;;;;;11.60;10.67;;;;;;;16.63;100.00;98175.13;4964559;28;20217;-68
2021/09/11 04:55:58;;;;;;;11.03;10.23;;;;;;;16.58;100.00;98177.56;4990837;28;20204;-69
2021/09/11 04:58:26;;;;;;;12.90;11.70;;;;;;;16.67;100.00;98178.22;4996710;28;20255;-69
2021/09/11 05:00:54;;;;;;;13.37;12.23;;;;;;;16.62;100.00;98178.81;4959812;28;20226;-71
2021/09/11 05:03:22;;;;;;;13.57;12.30;;;;;;;16.67;100.00;98175.53;4993668;28;20227;-69
2021/09/11 05:05:53;;;;;;;12.57;11.57;;;;;;;16.69;100.00;98178.88;5000303;28;20689;-70
2021/09/11 05:08:23;;;;;;;11.97;11.03;;;;;;;16.66;100.00;98179.22;4989343;28;20488;-71
2021/09/11 05:10:51;;;;;;;11.70;10.80;;;;;;;16.59;100.00;98171.19;4999101;28;20232;-70
2021/09/11 05:13:19;;;;;;;11.87;10.97;;;;;;;16.66;100.00;98182.75;5001294;28;20231;-70
2021/09/11 05:15:47;;;;;;;12.77;11.67;;;;;;;16.63;100.00;98188.50;4996411;28;20207;-71
2021/09/11 05:18:15;;;;;;;13.10;12.00;;;;;;;16.54;100.00;98187.03;4960917;28;20236;-70
2021/09/11 05:20:43;;;;;;;13.60;12.50;;;;;;;16.55;100.00;98194.03;4999299;28;20224;-70
2021/09/11 05:23:11;;;;;;;13.73;12.63;;;;;;;16.45;100.00;98200.53;4990491;28;20965;-71
2021/09/11 05:25:40;;;;;;;13.77;12.67;;;;;;;16.52;100.00;98194.41;4994493;28;20585;-70
2021/09/11 05:28:08;;;;;;;13.73;12.63;;;;;;;16.49;100.00;98209.84;4991729;28;20220;-70
2021/09/11 05:30:36;;;;;;;13.93;12.73;;;;;;;16.53;100.00;98217.47;5002875;28;20603;-71
2021/09/11 05:33:04;;;;;;;13.67;12.37;;;;;;;16.57;100.00;98214.19;4962536;28;20312;-70
2021/09/11 05:35:32;;;;;;;12.77;11.77;;;;;;;16.49;100.00;98214.34;5000761;28;20200;-70
2021/09/11 05:38:00;;;;;;;14.37;13.07;;;;;;;16.58;100.00;98213.16;4979956;28;20216;-70
2021/09/11 05:40:28;;;;;;;13.77;12.57;;;;;;;16.58;100.00;98205.13;4986839;28;20209;-72
2021/09/11 05:42:57;;;;;;;13.40;12.30;;;;;;;16.59;100.00;98216.69;4981674;28;20363;-72
2021/09/11 05:45:25;;;;;;;13.10;12.10;;;;;;;16.61;100.00;98214.63;5005402;28;20592;-72
2021/09/11 05:47:53;;;;;;;14.30;13.03;;;;;;;16.59;100.00;98216.69;4958356;28;20772;-70
2021/09/11 05:50:21;;;;;;;13.63;12.57;;;;;;;16.59;100.00;98224.69;4993994;28;20625;-70
2021/09/11 05:52:49;;;;;;;13.60;12.40;;;;;;;16.67;100.00;98210.31;4993904;28;20581;-69
2021/09/11 05:55:17;;;;;;;13.63;12.63;;;;;;;16.67;100.00;98211.16;4986114;28;20392;-70
2021/09/11 05:57:45;;;;;;;14.30;13.20;;;;;;;16.67;100.00;98208.47;4984671;28;20229;-70
2021/09/11 06:00:15;;;;;;;13.53;12.33;;;;;;;16.73;100.00;98202.31;5002165;28;20239;-70
2021/09/11 06:02:43;;;;;;;14.30;13.03;;;;;;;16.76;100.00;98209.97;5002798;28;20209;-71
2021/09/11 06:05:12;;;;;;;14.17;12.97;;;;;;;16.75;100.00;98208.31;4959241;28;20427;-70
2021/09/11 06:07:40;;;;;;;14.63;13.33;;;;;;;16.76;100.00;98209.97;4993868;28;20233;-69
2021/09/11 06:10:09;;;;;;;13.67;12.43;;;;;;;16.93;100.00;98213.13;4989784;28;20219;-70
2021/09/11 06:12:37;;;;;;;14.33;13.13;;;;;;;16.91;100.00;98206.34;5005820;28;20229;-72
2021/09/11 06:15:06;;;;;;;13.90;12.77;;;;;;;16.88;100.00;98204.06;4990394;28;20589;-71
2021/09/11 06:17:36;;;;;;;14.27;13.07;;;;;;;16.95;100.00;98209.41;5003794;28;20228;-70
2021/09/11 06:20:06;;;;;;;14.07;12.87;;;;;;;17.01;100.00;98211.31;4971185;28;20220;-69
2021/09/11 06:22:34;;;;;;;13.00;11.90;;;;;;;17.06;100.00;98206.22;4988292;28;20573;-72
2021/09/11 06:25:02;;;;;;;13.73;12.57;;;;;;;17.08;100.00;98206.84;4993664;28;20209;-70
2021/09/11 06:27:29;;;;;;;12.83;11.73;;;;;;;17.15;100.00;98210.34;4996821;28;20243;-69
2021/09/11 06:29:57;;;;;;;14.40;13.07;;;;;;;17.24;100.00;98212.84;4988434;28;20223;-70
2021/09/11 06:32:25;;;;;;;12.43;11.17;;;;;;;17.29;100.00;98213.91;4993460;28;20390;-70
2021/09/11 06:34:55;;;;;;;12.47;11.47;;;;;;;17.28;100.00;98214.94;4998884;28;20575;-70
2021/09/11 06:37:23;;;;;;;13.57;12.47;;;;;;;17.32;100.00;98208.16;4962774;28;20237;-71
2021/09/11 06:39:50;;;;;;;13.50;12.40;;;;;;;17.38;100.00;98211.84;4995673;28;20223;-70
2021/09/11 06:42:19;;;;;;;13.13;12.03;;;;;;;17.44;100.00;98205.69;5005025;28;20201;-70
2021/09/11 06:44:48;;;;;;;13.07;12.07;;;;;;;17.49;100.00;98210.44;4980145;28;20711;-70
2021/09/11 06:47:16;;;;;;;13.20;12.17;;;;;;;17.58;100.00;98209.19;5005768;28;20244;-71
2021/09/11 06:49:44;;;;;;;12.33;11.07;;;;;;;17.69;100.00;98215.81;5004284;28;20213;-69
2021/09/11 06:52:13;;;;;;;12.97;11.87;;;;;;;17.72;100.00;98211.91;4949881;28;20718;-70
2021/09/11 06:54:41;;;;;;;13.07;11.87;;;;;;;17.81;100.00;98217.91;4994605;28;20744;-69
2021/09/11 06:57:10;;;;;;;13.20;12.07;;;;;;;17.86;100.00;98215.44;5005311;28;20894;-71
2021/09/11 06:59:38;;;;;;;13.27;11.97;;;;;;;17.96;100.00;98218.50;5003032;28;20220;-71
2021/09/11 07:02:06;;;;;;;12.03;11.13;;;;;;;18.04;100.00;98217.53;4985133;28;20324;-67
2021/09/11 07:04:34;;;;;;;13.23;12.13;;;;;;;17.96;100.00;98218.50;5002858;28;20669;-70
2021/09/11 07:07:02;;;;;;;11.57;10.67;;;;;;;18.08;100.00;98218.75;4978837;28;20721;-69
2021/09/11 07:09:31;;;;;;;12.43;11.40;;;;;;;18.23;100.00;98216.66;4965932;28;20239;-72
2021/09/11 07:11:59;;;;;;;12.47;11.37;;;;;;;18.49;100.00;98220.34;4996368;28;20315;-69
2021/09/11 07:14:27;;;;;;;12.53;11.53;;;;;;;18.38;100.00;98204.91;4996937;28;20205;-70
2021/09/11 07:16:55;;;;;;;11.20;10.40;;;;;;;18.49;100.00;98223.03;4985811;28;20232;-68
2021/09/11 07:19:23;;;;;;;12.17;11.17;;;;;;;18.52;100.00;98227.13;5003081;28;20209;-69
2021/09/11 07:21:51;;;;;;;13.03;11.90;;;;;;;18.61;100.00;98230.44;4994294;28;20421;-70
2021/09/11 07:24:19;;;;;;;12.07;11.17;;;;;;;18.89;100.00;98226.63;4966653;28;20646;-69
2021/09/11 07:26:48;;;;;;;11.13;10.17;;;;;;;18.97;100.00;98231.75;4998577;28;20454;-71
2021/09/11 07:29:16;;;;;;;11.07;10.23;;;;;;;18.90;100.00;98230.97;5006546;28;20220;-69
2021/09/11 07:31:44;;;;;;;11.00;10.00;;;;;;;18.92;100.00;98231.56;4991329;28;20700;-68
2021/09/11 07:34:12;;;;;;;11.20;10.30;;;;;;;19.02;100.00;98234.66;5001209;28;20212;-70
2021/09/11 07:36:40;;;;;;;11.00;10.10;;;;;;;18.92;100.00;98248.50;4996740;28;20224;-70
2021/09/11 07:39:08;;;;;;;10.77;9.97;;;;;;;19.05;100.00;98236.91;4972608;28;20232;-68
2021/09/11 07:41:36;;;;;;;9.97;9.20;;;;;;;19.08;100.00;98235.69;5002896;28;20212;-70
2021/09/11 07:44:05;;;;;;;10.07;9.30;;;;;;;19.24;100.00;98235.19;5010125;28;20215;-72
2021/09/11 07:46:34;;;;;;;9.87;9.07;;;;;;;19.26;100.00;98242.19;4999003;28;20775;-70
2021/09/11 07:49:02;;;;;;;9.97;9.17;;;;;;;19.40;100.00;98251.03;4999036;28;20251;-69
2021/09/11 07:51:30;;;;;;;9.33;8.63;;;;;;;19.24;100.00;98239.75;5000517;28;20202;-70
2021/09/11 07:53:58;;;;;;;8.83;8.00;;;;;;;19.33;100.00;98243.00;4964532;28;20378;-69
2021/09/11 07:56:26;;;;;;;8.83;8.23;;;;;;;19.56;100.00;98253.22;4998734;28;20205;-70
2021/09/11 07:58:54;;;;;;;8.27;7.57;;;;;;;19.69;100.00;98252.28;5008415;28;20209;-68
2021/09/11 08:01:23;;;;;;;8.00;7.40;;;;;;;19.65;100.00;98251.91;5003717;28;20216;-69
2021/09/11 08:03:51;;;;;;;9.50;8.60;;;;;;;19.77;100.00;98253.91;4985335;28;20404;-70
2021/09/11 08:06:20;;;;;;;8.77;8.07;;;;;;;19.85;100.00;98250.94;5002672;28;20209;-69
2021/09/11 08:08:48;;;;;;;8.37;7.77;;;;;;;20.03;100.00;98254.78;4997509;28;20540;-70
2021/09/11 08:11:17;;;;;;;8.80;8.00;;;;;;;20.06;100.00;98267.78;4973209;28;20681;-68
2021/09/11 08:13:45;;;;;;;8.07;7.40;;;;;;;20.18;100.00;98260.66;5016248;28;20229;-70
2021/09/11 08:16:13;;;;;;;8.37;7.50;;;;;;;20.24;100.00;98261.66;4957008;28;20483;-70
2021/09/11 08:18:43;;;;;;;9.37;8.57;;;;;;;20.29;100.00;98266.38;5003724;28;20211;-68
2021/09/11 08:21:11;;;;;;;8.77;7.97;;;;;;;20.18;100.00;98265.22;4986312;28;20618;-71
2021/09/11 08:23:41;;;;;;;7.90;7.40;;;;;;;20.16;100.00;98261.94;5004997;28;20205;-71
2021/09/11 08:26:09;;;;;;;8.50;7.90;;;;;;;19.95;100.00;98256.72;5002203;28;20441;-69
2021/09/11 08:28:37;;;;;;;8.67;7.93;;;;;;;19.83;100.00;98262.97;5004246;28;20275;-69
2021/09/11 08:31:05;;;;;;;8.03;7.43;;;;;;;19.90;100.00;98252.97;4968247;28;20224;-70
2021/09/11 08:33:33;;;;;;;7.47;6.97;;;;;;;19.90;100.00;98259.22;5004328;28;20664;-69
2021/09/11 08:36:03;;;;;;;7.30;6.80;;;;;;;19.97;100.00;98264.53;4999998;28;20212;-71
2021/09/11 08:38:34;;;;;;;6.60;6.10;;;;;;;19.85;100.00;98260.88;5011416;28;20224;-69
2021/09/11 08:41:03;;;;;;;6.37;5.60;;;;;;;19.73;100.00;98250.00;5000128;28;20689;-70
2021/09/11 08:43:31;;;;;;;6.83;6.37;;;;;;;19.74;100.00;98263.25;5001628;28;20725;-69
2021/09/11 08:45:59;;;;;;;7.10;6.50;;;;;;;19.65;100.00;98270.72;4969299;28;20223;-71
2021/09/11 08:48:27;;;;;;;6.53;6.10;;;;;;;19.71;100.00;98268.22;5005543;28;20220;-68
2021/09/11 08:50:56;;;;;;;7.03;6.53;;;;;;;19.62;100.00;98263.09;4994868;28;20204;-70
2021/09/11 08:53:25;;;;;;;7.03;6.47;;;;;;;19.59;100.00;98263.53;4997322;28;20216;-69
2021/09/11 08:55:53;;;;;;;7.40;6.87;;;;;;;19.48;100.00;98267.72;5001813;28;20622;-71
2021/09/11 08:58:22;;;;;;;7.20;6.60;;;;;;;19.50;100.00;98267.50;5004133;28;20224;-69
2021/09/11 09:00:51;;;;;;;7.20;6.70;;;;;;;19.28;100.00;98267.81;4974401;28;20254;-70
2021/09/11 09:03:31;;;;;;;7.40;6.80;;;;;;;19.42;100.00;98257.84;5002460;28;20390;-69
2021/09/11 09:06:17;;;;;;;6.97;6.27;;;;;;;19.75;100.00;98250.59;4998275;28;20303;-71
2021/09/11 09:08:48;;;;;;;6.70;5.97;;;;;;;20.20;100.00;98266.63;4996108;28;20219;-70
2021/09/11 09:11:18;;;;;;;7.80;7.20;;;;;;;19.87;100.00;98264.19;4997839;28;20348;-69
2021/09/11 09:13:51;;;;;;;6.37;5.87;;;;;;;19.87;100.00;98261.50;5000537;28;20233;-69
2021/09/11 09:16:19;;;;;;;7.57;6.90;;;;;;;19.76;100.00;98258.47;4968176;28;20355;-70
2021/09/11 09:18:47;;;;;;;7.93;7.13;;;;;;;19.67;100.00;98265.13;4995996;28;20564;-70
2021/09/11 09:21:17;;;;;;;7.17;6.57;;;;;;;19.74;100.00;98265.94;5003443;28;20212;-71
2021/09/11 09:23:51;;;;;;;6.80;6.20;;;;;;;19.75;100.00;98262.19;4989764;28;20208;-69
2021/09/11 09:26:19;;;;;;;6.77;6.37;;;;;;;19.79;100.00;98257.19;4997875;28;20204;-68
2021/09/11 09:29:11;;;;;;;8.60;7.23;;;;;;;19.82;100.00;98262.13;5002408;28;20216;-70
2021/09/11 09:31:39;;;;;;;7.80;7.20;;;;;;;20.14;100.00;98269.41;4968784;28;20231;-69
2021/09/11 09:34:07;;;;;;;7.30;6.80;;;;;;;20.33;100.00;98262.19;5003615;28;20326;-69
2021/09/11 09:36:37;;;;;;;6.53;6.03;;;;;;;20.52;100.00;98260.38;5004414;28;20686;-69
2021/09/11 09:39:09;;;;;;;7.90;7.30;;;;;;;20.28;100.00;98264.72;4996505;28;20216;-69
2021/09/11 09:41:48;;;;;;;8.60;7.87;;;;;;;20.50;100.00;98260.56;5004515;28;20215;-71
2021/09/11 09:44:18;;;;;;;7.03;6.53;;;;;;;20.44;100.00;98263.31;4997906;28;20204;-69
2021/09/11 09:46:47;;;;;;;7.43;6.93;;;;;;;20.27;100.00;98258.50;5007656;28;20231;-70
2021/09/11 09:49:20;;;;;;;7.83;7.33;;;;;;;20.44;100.00;98266.84;4976464;28;20411;-69
2021/09/11 09:51:49;;;;;;;8.30;7.60;;;;;;;20.56;100.00;98260.72;5004748;28;20220;-70
2021/09/11 09:54:19;;;;;;;9.23;8.53;;;;;;;20.38;100.00;98255.09;4988869;28;20712;-70
2021/09/11 09:56:47;;;;;;;8.47;7.87;;;;;;;21.10;100.00;98253.75;5009108;28;20337;-71
2021/09/11 09:59:17;;;;;;;8.17;7.57;;;;;;;21.02;100.00;98255.91;4999104;28;20441;-69
2021/09/11 10:01:49;;;;;;;7.87;7.37;;;;;;;20.84;100.00;98251.34;5008325;28;20205;-69
2021/09/11 10:04:19;;;;;;;7.73;7.13;;;;;;;21.02;100.00;98247.84;4971680;28;20563;-70
2021/09/11 10:06:50;;;;;;;7.57;7.07;;;;;;;21.46;100.00;98245.00;5003471;28;20232;-70
2021/09/11 10:09:22;;;;;;;8.00;7.40;;;;;;;22.14;100.00;98245.63;5006619;28;20330;-68
2021/09/11 10:11:51;;;;;;;7.30;6.80;;;;;;;22.61;100.00;98241.34;4991393;28;20383;-71
2021/09/11 10:14:21;;;;;;;6.67;6.27;;;;;;;23.02;100.00;98247.59;5005729;28;20376;-70
2021/09/11 10:16:59;;;;;;;7.77;7.17;;;;;;;22.78;100.00;98246.84;5004225;28;20808;-71
2021/09/11 10:19:29;;;;;;;7.60;7.00;;;;;;;22.82;100.00;98237.19;4967812;28;20223;-69
2021/09/11 10:22:07;;;;;;;6.77;6.27;;;;;;;22.76;100.00;98238.97;5006390;28;20208;-69
2021/09/11 10:24:37;;;;;;;6.23;5.83;;;;;;;22.78;100.00;98236.84;4967882;28;20513;-69
2021/09/11 10:27:11;;;;;;;7.00;6.50;;;;;;;22.65;100.00;98232.50;4986302;28;20576;-71
2021/09/11 10:29:50;;;;;;;7.03;6.53;;;;;;;22.67;100.00;98229.59;5007815;28;20509;-69
2021/09/11 10:32:41;;;;;;;6.83;6.40;;;;;;;21.82;100.00;98238.69;4989623;28;20963;-70
2021/09/11 10:35:11;;;;;;;6.70;6.23;;;;;;;21.47;100.00;98235.84;4999825;28;20513;-69
2021/09/11 10:37:44;;;;;;;6.60;6.10;;;;;;;21.28;100.00;98229.69;4999556;28;20920;-71
2021/09/11 10:40:34;;;;;;;7.33;6.83;;;;;;;20.85;100.00;98237.69;4969527;28;20763;-70
2021/09/11 10:43:28;;;;;;;6.77;6.27;;;;;;;20.45;100.00;98238.88;5000049;28;20209;-70
2021/09/11 10:46:06;;;;;;;8.17;7.57;;;;;;;19.97;100.00;98240.34;5005954;28;20220;-69
2021/09/11 10:48:42;;;;;;;6.63;6.13;;;;;;;19.79;100.00;98239.22;4992027;28;20225;-69
2021/09/11 10:51:17;;;;;;;8.30;7.57;;;;;;;19.22;100.00;98236.44;5005524;28;20439;-68
2021/09/11 10:54:09;;;;;;;9.20;8.50;;;;;;;18.98;100.00;98236.13;4968148;28;20364;-69
2021/09/11 10:56:44;;;;;;;8.37;7.67;;;;;;;18.55;100.00;98233.97;5006116;28;20208;-69
2021/09/11 10:59:35;;;;;;;13.33;9.07;;;;;;;18.22;100.00;98232.97;5004754;28;20216;-69
2021/09/11 11:02:06;;;;;;;8.20;7.60;;;;;;;17.95;100.00;98235.63;5004505;28;20282;-69
2021/09/11 11:04:37;;;;;;;9.07;8.37;;;;;;;18.04;100.00;98236.28;4986808;28;20232;-68
2021/09/11 11:07:06;;;;;;;10.03;9.10;;;;;;;18.06;100.00;98244.97;5008261;28;20240;-68
2021/09/11 11:09:38;;;;;;;9.40;8.60;;;;;;;18.23;100.00;98227.41;4971589;28;20213;-69
2021/09/11 11:12:08;;;;;;;9.83;9.03;;;;;;;18.56;100.00;98228.41;5002922;28;20721;-67
2021/09/11 11:14:44;;;;;;;8.97;8.23;;;;;;;18.85;100.00;98230.78;5003707;28;20454;-68
2021/09/11 11:17:12;;;;;;;9.43;8.63;;;;;;;18.99;100.00;98228.91;4999724;28;20232;-69
2021/09/11 11:19:43;;;;;;;9.13;8.33;;;;;;;19.22;100.00;98223.00;4988705;28;20208;-69
2021/09/11 11:22:12;;;;;;;9.80;9.00;;;;;;;19.37;100.00;98220.03;5005124;28;20443;-69
2021/09/11 11:24:42;;;;;;;8.13;7.60;;;;;;;19.35;100.00;98220.25;4967455;28;20213;-69
2021/09/11 11:27:13;;;;;;;7.83;7.27;;;;;;;19.47;100.00;98224.94;4998606;28;20609;-69